createdAt,value
2023-02-25T00:02:38.029Z,99431.78
2023-02-25T00:07:42.282Z,99439.38
2023-02-25T00:12:45.780Z,99440.28
2023-02-25T00:17:49.809Z,99441.09
2023-02-25T00:22:54.085Z,99450.84
2023-02-25T00:27:57.210Z,99458.75
2023-02-25T00:33:00.166Z,99466.19
2023-02-25T00:38:15.641Z,99473.09
2023-02-25T00:43:22.095Z,99476.84
2023-02-25T00:48:25.768Z,99479.84
2023-02-25T00:53:30.205Z,99487.59
2023-02-25T00:58:33.188Z,99496.91
2023-02-25T01:03:36.016Z,99499.19
2023-02-25T01:08:40.377Z,99509.56
2023-02-25T01:13:43.953Z,99511.94
2023-02-25T01:18:47.286Z,99517.84
2023-02-25T01:23:58.903Z,99515.75
2023-02-25T01:29:01.897Z,99521.34
2023-02-25T01:34:07.474Z,99531.41
2023-02-25T01:39:12.656Z,99521.31
2023-02-25T01:44:17.779Z,99534.34
2023-02-25T01:49:29.174Z,99553.38
2023-02-25T01:54:34.585Z,99553.78
2023-02-25T01:59:40.111Z,99555.22
2023-02-25T02:04:45.036Z,99574.63
2023-02-25T02:09:56.809Z,99581.00
2023-02-25T02:15:02.009Z,99584.31
2023-02-25T02:20:14.080Z,99588.31
2023-02-25T02:25:52.741Z,99591.38
2023-02-25T02:31:19.856Z,99606.53
2023-02-25T02:36:35.974Z,99606.31
2023-02-25T02:41:45.504Z,99602.72
2023-02-25T02:46:55.655Z,99617.56
2023-02-25T02:52:03.036Z,99629.03
2023-02-25T02:57:09.777Z,99646.22
2023-02-25T03:02:18.261Z,99645.25
2023-02-25T03:07:22.505Z,99652.19
2023-02-25T03:12:25.339Z,99657.97
2023-02-25T03:17:36.823Z,99661.78
2023-02-25T03:22:42.475Z,99673.81
2023-02-25T03:27:47.361Z,99679.72
2023-02-25T03:33:00.969Z,99685.16
2023-02-25T03:38:08.745Z,99692.00
2023-02-25T03:43:17.580Z,99700.22
2023-02-25T03:48:23.572Z,99710.97
2023-02-25T03:53:26.598Z,99727.91
2023-02-25T03:58:38.414Z,99733.72
2023-02-25T04:03:42.733Z,99744.88
2023-02-25T04:08:46.326Z,99758.81
2023-02-25T04:13:49.066Z,99751.22
2023-02-25T04:18:53.815Z,99770.31
2023-02-25T04:23:57.012Z,99775.00
2023-02-25T04:28:59.951Z,99770.44
2023-02-25T04:34:04.192Z,99776.22
2023-02-25T04:39:07.045Z,99782.81
2023-02-25T04:44:10.203Z,99783.91
2023-02-25T04:49:14.519Z,99776.69
2023-02-25T04:54:18.416Z,99774.44
2023-02-25T04:59:21.185Z,99780.03
2023-02-25T05:04:25.317Z,99787.28
2023-02-25T05:09:28.147Z,99785.72
2023-02-25T05:14:32.926Z,99785.16
2023-02-25T05:19:37.200Z,99789.84
2023-02-25T05:24:40.061Z,99800.06
2023-02-25T05:29:43.247Z,99808.75
2023-02-25T05:34:47.423Z,99801.44
2023-02-25T05:39:50.180Z,99812.13
2023-02-25T05:44:53.198Z,99812.97
2023-02-25T05:49:57.387Z,99825.03
2023-02-25T05:55:00.654Z,99833.00
2023-02-25T06:00:05.825Z,99828.16
2023-02-25T06:05:16.457Z,99841.72
2023-02-25T06:10:19.332Z,99852.03
2023-02-25T06:15:22.045Z,99877.16
2023-02-25T06:20:27.896Z,99880.59
2023-02-25T06:25:32.166Z,99891.63
2023-02-25T06:30:35.026Z,99904.63
2023-02-25T06:35:39.384Z,99911.97
2023-02-25T06:40:42.278Z,99913.66
2023-02-25T06:45:45.884Z,99914.38
2023-02-25T06:50:50.586Z,99915.06
2023-02-25T06:55:53.325Z,99931.06
2023-02-25T07:00:56.177Z,99929.78
2023-02-25T07:06:00.378Z,99952.38
2023-02-25T07:11:15.375Z,99963.22
2023-02-25T07:16:19.072Z,99986.03
2023-02-25T07:21:23.933Z,99989.69
2023-02-25T07:26:28.286Z,100000.59
2023-02-25T07:31:31.251Z,100002.88
2023-02-25T07:36:43.809Z,100003.28
2023-02-25T07:41:46.668Z,100023.97
2023-02-25T07:46:49.393Z,100027.31
2023-02-25T08:11:08.370Z,100057.81
2023-02-25T08:16:13.288Z,100056.03
2023-02-25T08:21:18.991Z,100057.91
2023-02-25T08:26:24.349Z,100079.91
2023-02-25T08:31:28.051Z,100080.59
2023-02-25T08:36:32.392Z,100093.25
2023-02-25T08:41:36.883Z,100099.47
2023-02-25T08:46:40.395Z,100114.69
2023-02-25T08:51:43.234Z,100110.97
2023-02-25T08:56:47.404Z,100138.75
2023-02-25T09:01:52.137Z,100148.25
2023-02-25T09:06:55.144Z,100157.97
2023-02-25T09:11:59.325Z,100156.94
2023-02-25T09:17:03.989Z,100163.97
2023-02-25T09:22:07.650Z,100174.41
2023-02-25T09:27:12.708Z,100191.94
2023-02-25T09:32:19.674Z,100195.53
2023-02-25T09:37:22.615Z,100205.28
2023-02-25T09:42:33.235Z,100217.63
2023-02-25T09:47:43.980Z,100222.56
2023-02-25T09:52:52.061Z,100243.03
2023-02-25T09:58:02.900Z,100251.63
2023-02-25T10:03:12.844Z,100257.84
2023-02-25T10:08:23.071Z,100269.09
2023-02-25T10:13:40.915Z,100279.94
2023-02-25T10:19:01.600Z,100279.03
2023-02-25T10:24:28.207Z,100293.50
2023-02-25T10:29:39.696Z,100314.13
2023-02-25T10:34:42.798Z,100334.19
2023-02-25T10:39:48.661Z,100329.72
2023-02-25T10:44:54.030Z,100345.03
2023-02-25T10:50:42.793Z,100358.56
2023-02-25T10:55:51.725Z,100352.13
2023-02-25T11:01:00.099Z,100369.28
2023-02-25T11:06:12.479Z,100371.44
2023-02-25T11:11:18.418Z,100385.88
2023-02-25T11:16:24.641Z,100381.16
2023-02-25T11:21:37.388Z,100383.25
2023-02-25T11:26:43.953Z,100395.66
2023-02-25T11:31:50.997Z,100399.88
2023-02-25T11:36:53.999Z,100403.03
2023-02-25T11:41:58.707Z,100421.88
2023-02-25T11:47:10.826Z,100424.69
2023-02-25T11:52:22.146Z,100399.16
2023-02-25T11:57:36.100Z,100420.22
2023-02-25T12:02:48.792Z,100424.06
2023-02-25T12:08:13.479Z,100417.50
2023-02-25T12:13:56.010Z,100421.63
2023-02-25T12:19:26.024Z,100423.88
2023-02-25T12:24:49.589Z,100436.66
2023-02-25T12:30:09.896Z,100440.16
2023-02-25T12:35:43.256Z,100444.25
2023-02-25T12:41:18.465Z,100454.53
2023-02-25T12:46:46.331Z,100458.59
2023-02-25T12:52:11.369Z,100457.13
2023-02-25T12:57:33.029Z,100466.16
2023-02-25T13:02:58.747Z,100455.50
2023-02-25T13:08:32.579Z,100465.69
2023-02-25T13:14:05.915Z,100478.97
2023-02-25T13:19:27.972Z,100474.81
2023-02-25T13:24:45.887Z,100487.19
2023-02-25T13:30:05.707Z,100498.38
2023-02-25T13:35:26.322Z,100502.25
2023-02-25T13:40:44.993Z,100504.56
2023-02-25T13:46:00.521Z,100516.97
2023-02-25T13:51:28.136Z,100510.13
2023-02-25T13:56:44.877Z,100530.44
2023-02-25T14:02:03.118Z,100535.41
2023-02-25T14:07:23.085Z,100548.22
2023-02-25T14:12:45.138Z,100556.59
2023-02-25T14:18:04.726Z,100551.47
2023-02-25T14:23:17.405Z,100553.56
2023-02-25T14:28:32.108Z,100554.41
2023-02-25T14:34:05.564Z,100577.16
2023-02-25T14:39:23.815Z,100576.38
2023-02-25T14:44:35.300Z,100580.38
2023-02-25T14:49:43.018Z,100597.47
2023-02-25T14:55:21.937Z,100618.63
2023-02-25T15:01:01.113Z,100621.09
2023-02-25T15:06:17.608Z,100612.88
2023-02-25T15:11:43.991Z,100627.50
2023-02-25T15:17:28.643Z,100634.47
2023-02-25T15:22:32.724Z,100637.69
2023-02-25T15:27:56.786Z,100682.84
2023-02-25T15:33:24.805Z,100693.72
2023-02-25T15:38:44.095Z,100678.81
2023-02-25T15:43:47.299Z,100670.25
2023-02-25T15:49:05.663Z,100686.16
2023-02-25T15:54:09.777Z,100701.63
2023-02-25T15:59:13.149Z,100711.94
2023-02-25T16:04:50.453Z,100708.19
2023-02-25T16:09:57.972Z,100717.06
2023-02-25T16:15:01.981Z,100726.56
2023-02-25T16:20:18.037Z,100729.25
2023-02-25T16:25:29.503Z,100732.88
2023-02-25T16:30:41.422Z,100734.66
2023-02-25T16:35:55.399Z,100741.16
2023-02-25T16:41:03.122Z,100753.16
2023-02-25T16:46:10.547Z,100750.50
2023-02-25T16:51:24.211Z,100765.50
2023-02-25T16:56:31.884Z,100778.91
2023-02-25T17:01:37.875Z,100788.91
2023-02-25T17:06:42.832Z,100790.16
2023-02-25T17:11:57.029Z,100804.78
2023-02-25T17:17:00.492Z,100801.63
2023-02-25T17:22:05.409Z,100796.19
2023-02-25T17:27:12.320Z,100812.22
2023-02-25T17:32:22.035Z,100811.28
2023-02-25T17:37:29.356Z,100821.88
2023-02-25T17:42:35.462Z,100829.38
2023-02-25T17:47:38.728Z,100841.72
2023-02-25T17:52:49.022Z,100851.84
2023-02-25T17:57:54.935Z,100858.13
2023-02-25T18:03:17.892Z,100871.06
2023-02-25T18:08:23.840Z,100872.31
2023-02-25T18:13:33.726Z,100876.38
2023-02-25T18:18:37.252Z,100883.56
2023-02-25T18:23:41.527Z,100890.53
2023-02-25T18:28:45.612Z,100904.22
2023-02-25T18:33:48.720Z,100915.88
2023-02-25T18:38:54.645Z,100914.34
2023-02-25T18:43:57.376Z,100921.41
2023-02-25T18:49:00.418Z,100922.03
2023-02-25T18:54:04.876Z,100928.81
2023-02-25T18:59:07.671Z,100932.25
2023-02-25T19:04:17.255Z,100934.09
2023-02-25T19:09:22.901Z,100949.16
2023-02-25T19:14:44.895Z,100959.19
2023-02-25T19:19:54.780Z,100956.91
2023-02-25T19:25:05.729Z,100967.91
2023-02-25T19:41:46.547Z,100983.09
2023-02-25T19:52:15.668Z,101009.50
2023-02-25T19:58:12.174Z,101010.94
2023-02-25T20:03:59.478Z,101015.53
2023-02-25T20:15:32.246Z,101048.22
2023-02-25T20:20:37.084Z,101049.22
2023-02-25T20:25:39.910Z,101056.03
2023-02-25T21:53:33.674Z,101129.41
2023-02-25T22:04:46.140Z,101139.41
2023-02-25T22:09:50.375Z,101144.00
2023-02-25T22:14:53.149Z,101145.84
2023-02-25T22:19:55.865Z,101156.44
2023-02-25T22:25:00.476Z,101159.50
2023-02-25T22:30:03.357Z,101159.47
2023-02-25T22:35:07.626Z,101161.22
2023-02-25T22:40:13.370Z,101176.22
2023-02-25T22:45:16.338Z,101197.91
2023-02-25T22:50:19.224Z,101204.94
2023-02-25T22:55:23.480Z,101203.81
2023-02-25T23:00:26.363Z,101205.97
2023-02-25T23:05:29.113Z,101222.03
2023-02-25T23:10:35.983Z,101218.66
2023-02-25T23:15:41.794Z,101217.03
2023-02-25T23:20:47.402Z,101227.09
2023-02-25T23:25:54.426Z,101237.13
2023-02-25T23:30:57.214Z,101239.09
2023-02-25T23:36:01.065Z,101240.63
2023-02-25T23:41:05.420Z,101247.72
2023-02-25T23:46:08.466Z,101259.16
2023-02-25T23:51:11.224Z,101273.25
2023-02-25T23:56:18.582Z,101275.59
